Time;durP1;ratioP1;P1;durP2;ratioP2;P2;SDS_P1;SDS_P2;PMS_P1;PMS_P2;Temp;Humidity;BMP_temperature;BMP_pressure;BME280_temperature;BME280_humidity;BME280_pressure;Samples;Min_cycle;Max_cycle;Signal;HPM_P1;HPM_P2
2022/05/05 00:02:05;;;;;;;7.72;4.80;;;13.90;65.20;;;;;;5049692;28;20706;-73
2022/05/05 00:04:30;;;;;;;11.38;4.95;;;13.80;65.30;;;;;;5066436;28;20165;-74
2022/05/05 00:06:56;;;;;;;6.27;4.20;;;13.80;65.70;;;;;;5067640;28;20662;-74
2022/05/05 00:09:22;;;;;;;7.47;4.30;;;13.70;65.90;;;;;;5056533;28;20176;-74
2022/05/05 00:14:32;;;;;;;6.68;4.32;;;13.60;66.40;;;;;;5053067;28;20658;-73
2022/05/05 00:17:01;;;;;;;7.13;4.50;;;13.60;66.70;;;;;;5036157;28;20687;-73
2022/05/05 00:19:30;;;;;;;7.00;4.25;;;13.60;67.10;;;;;;5053387;28;20168;-73
2022/05/05 00:21:56;;;;;;;7.65;4.68;;;13.60;67.60;;;;;;5053730;28;20331;-73
2022/05/05 00:24:21;;;;;;;7.45;4.50;;;13.50;67.90;;;;;;5052590;28;20176;-73
2022/05/05 00:26:47;;;;;;;8.00;5.00;;;13.50;68.20;;;;;;5053564;28;20173;-74
2022/05/05 00:29:13;;;;;;;8.88;6.22;;;13.50;68.50;;;;;;5052156;28;20184;-74
2022/05/05 00:31:39;;;;;;;6.90;4.70;;;13.50;68.90;;;;;;5052019;28;20189;-73
2022/05/05 00:34:05;;;;;;;12.45;4.75;;;13.50;69.40;;;;;;5053764;28;21225;-74
2022/05/05 00:36:31;;;;;;;6.37;4.77;;;13.50;69.90;;;;;;5053508;28;20184;-73
2022/05/05 00:38:57;;;;;;;8.60;5.03;;;13.50;70.30;;;;;;5051972;28;20193;-74
2022/05/05 00:41:23;;;;;;;13.23;4.80;;;13.50;70.80;;;;;;5051760;28;20181;-73
2022/05/05 00:43:48;;;;;;;7.88;5.32;;;13.50;71.00;;;;;;5053741;28;20235;-73
2022/05/05 00:46:15;;;;;;;8.97;5.07;;;13.60;71.40;;;;;;5053621;28;20785;-73
2022/05/05 00:48:42;;;;;;;6.65;5.15;;;13.60;71.90;;;;;;5051679;28;20607;-73
2022/05/05 00:51:09;;;;;;;5.93;4.07;;;13.60;72.20;;;;;;5051943;28;20181;-74
2022/05/05 00:53:34;;;;;;;5.68;4.20;;;13.60;72.30;;;;;;5052456;28;20200;-74
2022/05/05 00:56:07;;;;;;;7.30;4.70;;;13.70;72.80;;;;;;5050494;28;20284;-74
2022/05/05 00:58:33;;;;;;;5.35;4.10;;;13.70;73.60;;;;;;5033854;28;20176;-74
2022/05/05 01:01:04;;;;;;;8.13;5.07;;;13.70;73.20;;;;;;5051904;28;20664;-74
2022/05/05 01:03:34;;;;;;;7.93;5.05;;;13.80;73.90;;;;;;5052187;28;20169;-74
2022/05/05 01:06:05;;;;;;;9.73;5.35;;;13.80;74.10;;;;;;5050806;28;20498;-74
2022/05/05 01:08:33;;;;;;;7.13;5.03;;;13.90;74.20;;;;;;5050964;28;20511;-74
2022/05/05 01:10:59;;;;;;;8.70;4.93;;;13.90;74.50;;;;;;5052460;28;20172;-74
2022/05/05 01:13:27;;;;;;;8.33;4.63;;;13.90;74.60;;;;;;5053092;28;20169;-74
2022/05/05 01:15:54;;;;;;;9.13;4.25;;;14.00;74.80;;;;;;5051841;28;20184;-74
2022/05/05 01:18:20;;;;;;;8.05;4.65;;;14.00;75.20;;;;;;5051322;28;20541;-74
2022/05/05 01:20:48;;;;;;;7.37;5.07;;;14.00;75.10;;;;;;5051805;28;20226;-74
2022/05/05 01:23:15;;;;;;;5.60;4.75;;;14.10;75.50;;;;;;5051889;28;20559;-74
2022/05/05 01:28:25;;;;;;;6.85;4.43;;;14.10;75.70;;;;;;5052468;28;20549;-73
2022/05/05 01:30:51;;;;;;;8.40;4.95;;;14.10;75.70;;;;;;5050727;28;20176;-73
2022/05/05 01:33:18;;;;;;;7.72;4.25;;;14.10;76.00;;;;;;5052414;28;20184;-73
2022/05/05 01:35:47;;;;;;;10.45;4.90;;;14.10;76.20;;;;;;5052906;28;20173;-74
2022/05/05 01:38:14;;;;;;;7.05;3.97;;;14.10;76.60;;;;;;5052123;28;20205;-74
2022/05/05 01:40:41;;;;;;;6.95;4.38;;;14.10;76.60;;;;;;5052121;28;20168;-73
2022/05/05 01:43:07;;;;;;;7.97;4.55;;;14.10;76.70;;;;;;5052192;28;20558;-73
2022/05/05 01:45:34;;;;;;;6.78;4.93;;;14.10;76.90;;;;;;5052548;28;20196;-73
2022/05/05 01:47:59;;;;;;;10.68;5.50;;;14.10;77.10;;;;;;5052041;28;20161;-74
2022/05/05 01:50:25;;;;;;;8.03;5.60;;;14.10;77.20;;;;;;5052294;28;20180;-73
2022/05/05 01:52:54;;;;;;;6.10;4.30;;;14.10;77.50;;;;;;5052311;28;20279;-73
2022/05/05 01:55:21;;;;;;;7.70;4.38;;;14.10;78.00;;;;;;5052186;28;20177;-73
2022/05/05 01:57:47;;;;;;;6.10;4.30;;;14.10;78.20;;;;;;5051744;28;20201;-73
2022/05/05 02:00:14;;;;;;;10.63;5.90;;;14.10;78.50;;;;;;5050553;28;20172;-74
2022/05/05 02:02:44;;;;;;;9.30;4.70;;;14.20;78.70;;;;;;5053440;28;20584;-80
2022/05/05 02:05:10;;;;;;;7.82;5.32;;;14.20;78.90;;;;;;5051561;28;20173;-80
2022/05/05 02:07:37;;;;;;;8.30;5.20;;;14.20;79.30;;;;;;5052142;28;20538;-80
2022/05/05 02:10:07;;;;;;;7.90;4.88;;;14.20;79.50;;;;;;5051290;28;20242;-80
2022/05/05 02:12:38;;;;;;;6.05;4.30;;;14.20;80.10;;;;;;5052645;28;20226;-80
2022/05/05 02:15:08;;;;;;;10.20;5.32;;;14.30;79.90;;;;;;5052865;28;20263;-80
2022/05/05 02:17:38;;;;;;;6.57;4.40;;;14.30;80.20;;;;;;5052054;28;20204;-80
2022/05/05 02:20:06;;;;;;;6.68;4.75;;;14.30;80.50;;;;;;5052620;28;20165;-80
2022/05/05 02:22:32;;;;;;;5.88;4.53;;;14.30;80.40;;;;;;5052681;28;20208;-80
2022/05/05 02:24:58;;;;;;;7.03;4.87;;;14.40;80.60;;;;;;5051377;28;20170;-81
2022/05/05 02:27:24;;;;;;;6.65;4.35;;;14.40;80.80;;;;;;5052401;28;20934;-80
2022/05/05 02:29:51;;;;;;;5.30;4.53;;;14.40;80.90;;;;;;5051909;28;20168;-80
2022/05/05 02:32:17;;;;;;;7.78;4.57;;;14.40;81.20;;;;;;5052493;28;20279;-80
2022/05/05 02:34:47;;;;;;;6.25;4.45;;;14.50;81.50;;;;;;5051120;28;20191;-80
2022/05/05 02:39:58;;;;;;;6.85;4.00;;;14.50;81.80;;;;;;5050770;22;20225;-73
2022/05/05 02:42:24;;;;;;;7.65;4.68;;;14.50;81.70;;;;;;5031615;28;20169;-73
2022/05/05 02:44:49;;;;;;;5.87;4.20;;;14.50;82.00;;;;;;5031775;28;20169;-73
2022/05/05 02:47:15;;;;;;;10.60;5.13;;;14.50;82.20;;;;;;5031294;28;20174;-73
2022/05/05 02:49:41;;;;;;;7.53;4.13;;;14.50;82.40;;;;;;5030805;28;20190;-76
2022/05/05 02:52:09;;;;;;;7.27;5.03;;;14.60;82.80;;;;;;5031249;28;20733;-75
2022/05/05 02:54:47;;;;;;;8.75;5.25;;;14.60;83.00;;;;;;5031437;28;20583;-73
2022/05/05 02:57:13;;;;;;;8.05;4.80;;;14.60;83.30;;;;;;5031322;28;20204;-73
2022/05/05 02:59:39;;;;;;;8.05;5.10;;;14.60;83.40;;;;;;5030644;28;20205;-76
2022/05/05 03:02:04;;;;;;;6.87;3.90;;;14.60;83.60;;;;;;5030286;28;20223;-73
2022/05/05 03:04:30;;;;;;;6.47;4.97;;;14.60;83.80;;;;;;5031372;28;20215;-73
2022/05/05 03:06:56;;;;;;;8.77;5.23;;;14.60;84.00;;;;;;5031049;28;20220;-73
2022/05/05 03:09:21;;;;;;;9.27;5.37;;;14.60;84.10;;;;;;5029572;28;20220;-75
2022/05/05 03:11:47;;;;;;;7.60;4.83;;;14.60;84.20;;;;;;5031102;28;20173;-74
2022/05/05 03:14:13;;;;;;;8.70;4.90;;;14.60;84.60;;;;;;5031346;28;20783;-74
2022/05/05 03:16:39;;;;;;;12.05;5.30;;;14.60;84.70;;;;;;5031183;28;20196;-74
2022/05/05 03:19:05;;;;;;;6.77;5.10;;;14.60;85.00;;;;;;5030675;28;20264;-74
2022/05/05 03:21:30;;;;;;;8.03;4.63;;;14.60;85.20;;;;;;5030768;28;20162;-74
2022/05/05 03:23:56;;;;;;;6.80;5.27;;;14.60;85.50;;;;;;5031241;28;20201;-74
2022/05/05 03:26:21;;;;;;;9.50;6.07;;;14.60;85.70;;;;;;5031053;28;20193;-74
2022/05/05 03:28:47;;;;;;;10.17;5.43;;;14.60;85.90;;;;;;5012992;28;20185;-74
2022/05/05 03:31:13;;;;;;;9.27;5.90;;;14.60;86.20;;;;;;5029604;28;20162;-74
2022/05/05 03:33:38;;;;;;;9.70;5.57;;;14.60;86.40;;;;;;5031166;28;20684;-74
2022/05/05 03:36:04;;;;;;;9.97;4.50;;;14.60;86.40;;;;;;5030915;28;20725;-74
2022/05/05 03:38:30;;;;;;;7.73;4.43;;;14.60;86.50;;;;;;5030561;28;20205;-74
2022/05/05 03:40:56;;;;;;;8.70;5.67;;;14.60;86.60;;;;;;5030716;28;20565;-74
2022/05/05 03:43:22;;;;;;;8.10;4.50;;;14.50;86.60;;;;;;5031476;28;20253;-74
2022/05/05 03:45:47;;;;;;;6.83;4.87;;;14.50;86.70;;;;;;5034812;28;20173;-74
2022/05/05 03:48:14;;;;;;;7.00;5.00;;;14.50;86.70;;;;;;5034098;28;20540;-74
2022/05/05 03:50:39;;;;;;;9.60;6.18;;;14.40;87.90;;;;;;5032769;28;20641;-74
2022/05/05 03:53:05;;;;;;;7.50;5.43;;;14.30;87.30;;;;;;5034543;28;20170;-75
2022/05/05 03:55:31;;;;;;;10.23;5.93;;;14.20;87.40;;;;;;5033318;28;20169;-74
2022/05/05 03:57:57;;;;;;;9.87;6.40;;;14.20;87.80;;;;;;5033549;28;20626;-74
2022/05/05 04:00:23;;;;;;;7.30;5.33;;;14.10;88.10;;;;;;5033265;28;20569;-74
2022/05/05 04:05:34;;;;;;;10.65;5.40;;;14.00;88.50;;;;;;5034415;28;20534;-75
2022/05/05 04:08:03;;;;;;;8.73;5.40;;;13.90;88.60;;;;;;5033644;28;20681;-74
2022/05/05 04:10:30;;;;;;;9.18;5.75;;;13.90;89.50;;;;;;5033944;28;20173;-74
2022/05/05 04:12:56;;;;;;;8.73;5.07;;;13.80;89.50;;;;;;5034027;28;20668;-74
2022/05/05 04:15:22;;;;;;;9.38;5.97;;;13.80;90.00;;;;;;5034067;28;20174;-74
2022/05/05 04:17:48;;;;;;;9.65;5.95;;;13.70;90.10;;;;;;5033560;28;20197;-74
2022/05/05 04:20:14;;;;;;;12.50;6.70;;;13.70;90.30;;;;;;5032417;28;20215;-74
2022/05/05 04:22:41;;;;;;;11.32;6.60;;;13.60;90.50;;;;;;5034017;28;20646;-74
2022/05/05 04:25:08;;;;;;;8.80;6.55;;;13.60;90.70;;;;;;5034102;28;20196;-74
2022/05/05 04:27:35;;;;;;;10.40;5.93;;;13.60;90.80;;;;;;5033554;28;20170;-74
2022/05/05 04:30:02;;;;;;;8.15;5.50;;;13.60;91.00;;;;;;5032133;28;20280;-73
2022/05/05 04:32:28;;;;;;;14.85;7.03;;;13.60;91.20;;;;;;5033869;28;20606;-74
2022/05/05 04:34:54;;;;;;;8.40;6.50;;;13.60;91.40;;;;;;5032799;28;20178;-74
2022/05/05 04:37:20;;;;;;;12.07;6.13;;;13.60;91.60;;;;;;5033618;28;20619;-74
2022/05/05 04:39:46;;;;;;;9.27;6.32;;;13.60;92.20;;;;;;5031427;28;20201;-74
2022/05/05 04:42:12;;;;;;;8.77;6.17;;;13.60;92.00;;;;;;5032527;28;20170;-74
2022/05/05 04:44:37;;;;;;;9.73;6.83;;;13.70;92.20;;;;;;5033411;28;20227;-74
2022/05/05 04:47:03;;;;;;;9.77;6.77;;;13.70;92.40;;;;;;5033685;28;20228;-74
2022/05/05 04:49:31;;;;;;;11.00;6.70;;;13.70;92.50;;;;;;5031797;28;20296;-74
2022/05/05 04:51:57;;;;;;;14.18;7.40;;;13.80;92.60;;;;;;5032005;28;20169;-75
2022/05/05 04:54:23;;;;;;;14.55;7.55;;;13.80;92.80;;;;;;5033245;28;20629;-74
2022/05/05 04:56:48;;;;;;;12.37;7.03;;;13.80;92.90;;;;;;5033495;28;20200;-74
2022/05/05 04:59:14;;;;;;;10.20;6.67;;;13.90;93.10;;;;;;5031381;28;20600;-74
2022/05/05 05:01:40;;;;;;;14.53;7.10;;;13.90;93.20;;;;;;5033148;28;20263;-74
2022/05/05 05:04:06;;;;;;;13.37;6.70;;;14.00;93.40;;;;;;5033278;28;20576;-73
2022/05/05 05:06:32;;;;;;;17.08;7.22;;;14.00;93.40;;;;;;5033312;28;20181;-74
2022/05/05 05:08:58;;;;;;;10.97;6.70;;;14.10;93.50;;;;;;5032828;28;20177;-74
2022/05/05 05:11:25;;;;;;;11.70;7.28;;;14.10;93.60;;;;;;5031819;28;20580;-74
2022/05/05 05:13:51;;;;;;;9.65;7.53;;;14.20;93.80;;;;;;5031833;28;20166;-74
2022/05/05 05:16:17;;;;;;;10.60;7.27;;;14.20;93.90;;;;;;5033257;28;20176;-74
2022/05/05 05:18:42;;;;;;;13.50;7.90;;;14.20;94.00;;;;;;5032194;28;20190;-74
2022/05/05 05:21:08;;;;;;;13.37;8.40;;;14.30;94.10;;;;;;5031916;28;20579;-74
2022/05/05 05:23:34;;;;;;;15.88;8.02;;;14.30;94.20;;;;;;5032038;28;20193;-74
2022/05/05 05:26:00;;;;;;;11.85;8.00;;;14.40;94.40;;;;;;5032078;28;20162;-73
2022/05/05 05:28:26;;;;;;;15.40;9.30;;;14.50;94.60;;;;;;5031847;28;20197;-74
2022/05/05 05:30:52;;;;;;;17.27;9.00;;;14.50;94.60;;;;;;5031407;28;20170;-73
2022/05/05 05:33:18;;;;;;;19.50;9.70;;;14.60;94.60;;;;;;5031497;28;20895;-74
2022/05/05 05:35:45;;;;;;;15.70;8.63;;;14.70;94.70;;;;;;5032920;28;20227;-74
2022/05/05 05:38:11;;;;;;;17.80;9.07;;;14.80;94.80;;;;;;5030722;28;20624;-74
2022/05/05 05:40:37;;;;;;;18.58;9.85;;;14.90;94.80;;;;;;5030943;28;20248;-74
2022/05/05 05:43:03;;;;;;;12.50;9.10;;;15.00;94.90;;;;;;5031370;28;20181;-73
2022/05/05 05:45:29;;;;;;;15.70;10.13;;;15.20;95.00;;;;;;5031370;28;20706;-74
2022/05/05 05:47:55;;;;;;;15.63;8.87;;;15.30;95.50;;;;;;5030841;28;20587;-74
2022/05/05 05:50:21;;;;;;;14.50;8.97;;;15.40;95.20;;;;;;5030855;28;20251;-74
2022/05/05 05:52:47;;;;;;;12.80;8.50;;;15.60;95.20;;;;;;5032351;28;20581;-74
2022/05/05 05:55:14;;;;;;;12.13;8.67;;;15.80;95.40;;;;;;5031938;28;20166;-73
2022/05/05 05:57:40;;;;;;;18.13;9.77;;;16.20;95.90;;;;;;5030380;28;20686;-73
2022/05/05 06:00:07;;;;;;;10.00;8.27;;;16.70;95.90;;;;;;5013993;28;21187;-73
2022/05/05 06:05:21;;;;;;;16.10;10.33;;;17.40;95.10;;;;;;5032055;28;20596;-73
2022/05/05 06:07:48;;;;;;;10.73;8.60;;;17.70;94.60;;;;;;5031119;28;20646;-73
2022/05/05 06:10:16;;;;;;;18.10;10.10;;;17.80;94.20;;;;;;5031580;28;20205;-73
2022/05/05 06:12:42;;;;;;;16.63;10.00;;;18.00;94.00;;;;;;5032084;28;20569;-73
2022/05/05 06:15:08;;;;;;;12.40;9.67;;;18.20;93.80;;;;;;5014240;28;20575;-73
2022/05/05 06:17:34;;;;;;;11.60;8.03;;;18.50;93.80;;;;;;5013926;28;20543;-73
2022/05/05 06:20:00;;;;;;;11.23;8.57;;;18.90;93.90;;;;;;5031638;28;20603;-73
2022/05/05 06:22:26;;;;;;;10.10;8.20;;;19.50;94.10;;;;;;4997763;28;20659;-73
2022/05/05 06:24:52;;;;;;;12.10;8.50;;;20.10;94.00;;;;;;5030498;28;20174;-73
2022/05/05 06:27:17;;;;;;;15.20;8.20;;;20.70;93.70;;;;;;5030433;28;20170;-73
2022/05/05 06:29:43;;;;;;;13.23;8.30;;;21.30;93.30;;;;;;5029525;28;20193;-74
2022/05/05 06:32:09;;;;;;;9.80;8.40;;;21.90;92.60;;;;;;5031648;28;20197;-74
2022/05/05 06:34:35;;;;;;;11.10;7.70;;;22.40;91.80;;;;;;5031600;28;20228;-74
2022/05/05 06:37:00;;;;;;;9.57;8.17;;;22.80;91.00;;;;;;5013862;28;20205;-73
2022/05/05 06:39:26;;;;;;;10.70;8.70;;;23.20;90.40;;;;;;5030767;28;20220;-73
2022/05/05 06:41:52;;;;;;;13.70;8.67;;;23.50;88.80;;;;;;5013506;28;20173;-73
2022/05/05 06:44:17;;;;;;;11.90;8.10;;;23.80;87.50;;;;;;5030243;28;20174;-73
2022/05/05 06:46:44;;;;;;;9.37;7.77;;;23.90;85.90;;;;;;5013572;28;20652;-74
2022/05/05 06:49:10;;;;;;;9.87;8.40;;;24.00;84.30;;;;;;5029822;28;20267;-74
2022/05/05 06:51:37;;;;;;;11.23;8.57;;;24.00;82.70;;;;;;5030171;28;21131;-73
2022/05/05 06:54:02;;;;;;;9.93;7.40;;;24.10;81.60;;;;;;5029688;28;21136;-73
2022/05/05 06:56:29;;;;;;;10.50;7.33;;;24.20;81.60;;;;;;5031431;28;20556;-73
2022/05/05 06:58:55;;;;;;;10.30;6.90;;;24.40;80.70;;;;;;5029758;28;20196;-73
2022/05/05 07:06:49;;;;;;;9.57;7.83;;;24.70;77.30;;;;;;5031265;28;20556;-74
2022/05/05 07:11:59;;;;;;;13.70;7.97;;;25.10;76.40;;;;;;5031190;28;20170;-74
2022/05/05 07:14:25;;;;;;;9.40;6.93;;;25.30;75.80;;;;;;5031320;28;20576;-73
2022/05/05 07:16:50;;;;;;;9.70;5.80;;;25.60;75.20;;;;;;5030031;28;20586;-74
2022/05/05 07:19:16;;;;;;;9.03;6.13;;;25.70;73.50;;;;;;5032860;28;20600;-73
2022/05/05 07:21:42;;;;;;;12.00;7.70;;;25.70;72.10;;;;;;5034803;28;20703;-73
2022/05/05 07:24:07;;;;;;;7.13;5.80;;;25.70;70.60;;;;;;5034892;28;20165;-73
2022/05/05 07:26:33;;;;;;;9.13;6.13;;;25.40;69.10;;;;;;5035240;28;20652;-73
2022/05/05 07:28:59;;;;;;;9.37;7.10;;;25.30;68.70;;;;;;5033378;28;20251;-73
2022/05/05 07:31:24;;;;;;;11.73;7.20;;;25.30;69.00;;;;;;5032331;28;20174;-72
2022/05/05 07:33:50;;;;;;;8.03;6.87;;;25.40;69.20;;;;;;5015125;28;20181;-73
2022/05/05 07:36:16;;;;;;;9.70;7.20;;;25.50;69.10;;;;;;5033040;28;20181;-72
2022/05/05 07:38:42;;;;;;;9.67;6.70;;;25.80;69.30;;;;;;5028227;28;20662;-72
2022/05/05 07:41:08;;;;;;;9.20;6.80;;;26.10;69.20;;;;;;5027653;28;20584;-72
2022/05/05 07:43:33;;;;;;;7.33;6.33;;;26.30;68.10;;;;;;5034414;28;20170;-72
2022/05/05 07:45:59;;;;;;;8.97;7.07;;;26.50;67.60;;;;;;5033367;28;20184;-72
2022/05/05 07:48:25;;;;;;;8.93;6.17;;;26.70;66.80;;;;;;5033706;28;20216;-72
2022/05/05 07:50:50;;;;;;;11.13;6.80;;;26.80;66.00;;;;;;5048288;28;20185;-72
2022/05/05 07:53:16;;;;;;;8.03;6.03;;;26.80;64.60;;;;;;5052397;28;20176;-72
2022/05/05 07:55:42;;;;;;;8.70;6.70;;;26.80;63.60;;;;;;5054242;28;20526;-72
2022/05/05 07:58:08;;;;;;;7.20;6.23;;;26.60;62.70;;;;;;5051995;28;20192;-72
2022/05/05 08:00:33;;;;;;;11.27;6.70;;;26.40;62.10;;;;;;5053839;28;20169;-72
2022/05/05 08:02:59;;;;;;;9.73;7.90;;;26.30;62.00;;;;;;5052670;28;20169;-72
2022/05/05 08:05:25;;;;;;;8.33;6.23;;;26.10;62.00;;;;;;5049979;28;20938;-73
2022/05/05 08:07:51;;;;;;;7.73;6.10;;;26.00;61.70;;;;;;5031988;28;20185;-73
2022/05/05 08:10:21;;;;;;;8.77;6.57;;;25.90;61.80;;;;;;5033567;28;20201;-72
2022/05/05 08:12:47;;;;;;;8.47;6.57;;;25.80;61.30;;;;;;5032486;28;21202;-72
2022/05/05 08:15:16;;;;;;;10.30;6.50;;;25.80;61.30;;;;;;5033973;28;20568;-72
2022/05/05 08:17:43;;;;;;;8.20;7.00;;;25.70;61.00;;;;;;5031849;28;20667;-72
2022/05/05 08:20:10;;;;;;;9.37;6.07;;;25.60;61.40;;;;;;5033339;28;20602;-73
2022/05/05 08:22:36;;;;;;;12.73;7.30;;;25.60;61.70;;;;;;5032649;28;20564;-72
2022/05/05 08:30:32;;;;;;;7.40;5.60;;;25.80;62.00;;;;;;5032653;28;20584;-73
2022/05/05 08:32:58;;;;;;;7.40;6.70;;;26.10;62.50;;;;;;5033380;28;21135;-72
2022/05/05 08:35:24;;;;;;;7.60;6.80;;;26.40;62.20;;;;;;5031802;28;20572;-73
2022/05/05 08:37:57;;;;;;;8.13;5.97;;;26.80;62.30;;;;;;5028409;28;20213;-73
2022/05/05 08:40:25;;;;;;;9.43;5.63;;;27.30;61.50;;;;;;5017281;28;21185;-73
2022/05/05 08:42:50;;;;;;;8.20;6.37;;;27.80;61.20;;;;;;5032289;28;20572;-73
2022/05/05 08:45:16;;;;;;;7.67;6.00;;;28.20;60.30;;;;;;5033268;28;21605;-73
2022/05/05 08:47:45;;;;;;;9.67;5.60;;;28.50;59.70;;;;;;5033197;28;20170;-73
2022/05/05 08:50:12;;;;;;;10.67;6.50;;;28.80;59.20;;;;;;5014699;28;20604;-74
2022/05/05 08:52:44;;;;;;;9.10;6.00;;;29.20;58.80;;;;;;5015447;28;20576;-71
2022/05/05 08:55:15;;;;;;;6.50;5.37;;;29.70;58.10;;;;;;5032054;28;20622;-73
2022/05/05 08:57:41;;;;;;;9.63;5.63;;;30.20;57.70;;;;;;5031501;28;20711;-73
2022/05/05 09:00:08;;;;;;;7.03;4.97;;;30.50;56.70;;;;;;5032640;28;21011;-74
2022/05/05 09:02:34;;;;;;;6.10;4.90;;;30.80;55.50;;;;;;5033348;28;21101;-73
2022/05/05 09:05:00;;;;;;;7.23;5.70;;;30.90;54.90;;;;;;5032446;28;20618;-73
2022/05/05 09:07:47;;;;;;;6.90;5.03;;;31.10;54.00;;;;;;5033163;28;20161;-74
2022/05/05 09:10:15;;;;;;;6.13;5.53;;;31.10;53.50;;;;;;4998805;28;20650;-74
2022/05/05 09:12:41;;;;;;;7.17;5.53;;;31.30;53.10;;;;;;5033187;28;20581;-74
2022/05/05 09:15:10;;;;;;;9.90;5.47;;;31.50;52.30;;;;;;5032424;28;21139;-74
2022/05/05 09:17:36;;;;;;;9.97;5.40;;;31.80;52.00;;;;;;5031201;28;20620;-74
2022/05/05 09:20:06;;;;;;;7.90;4.73;;;32.20;52.50;;;;;;5031967;28;20595;-74
2022/05/05 09:22:32;;;;;;;9.93;4.93;;;32.70;51.20;;;;;;5015206;28;20569;-74
2022/05/05 09:24:58;;;;;;;8.53;5.23;;;32.90;49.90;;;;;;5032584;28;20557;-75
2022/05/05 09:27:26;;;;;;;7.40;5.40;;;32.80;48.80;;;;;;5031452;28;20173;-75
2022/05/05 09:30:05;;;;;;;6.37;4.67;;;32.90;48.10;;;;;;5031773;28;20190;-75
2022/05/05 09:32:34;;;;;;;6.97;5.10;;;32.80;47.30;;;;;;5032750;28;20568;-75
2022/05/05 09:35:15;;;;;;;8.90;5.17;;;32.90;47.10;;;;;;5032322;28;20598;-75
2022/05/05 09:37:49;;;;;;;9.20;5.30;;;33.10;47.50;;;;;;5032239;28;20615;-76
2022/05/05 09:40:24;;;;;;;11.60;5.53;;;33.50;47.90;;;;;;5015014;28;20646;-75
2022/05/05 09:42:51;;;;;;;6.63;5.20;;;34.00;47.60;;;;;;5031695;28;20577;-75
2022/05/05 09:45:19;;;;;;;8.53;6.17;;;34.30;46.70;;;;;;5030649;28;20673;-75
2022/05/05 09:47:53;;;;;;;7.60;5.60;;;34.50;45.50;;;;;;5031419;28;20563;-75
2022/05/05 09:50:24;;;;;;;8.60;5.27;;;34.60;45.10;;;;;;5053965;23;20679;-79
2022/05/05 09:58:23;;;;;;;8.23;7.43;;;35.10;43.30;;;;;;5031482;28;20633;-76
2022/05/05 10:01:00;;;;;;;11.60;8.20;;;35.10;43.20;;;;;;5030835;28;20973;-76
2022/05/05 10:04:06;;;;;;;7.80;6.70;;;35.10;42.90;;;;;;5032090;28;20569;-76
2022/05/05 10:06:41;;;;;;;10.70;9.70;;;35.10;42.50;;;;;;5031697;28;20568;-76
2022/05/05 10:09:12;;;;;;;8.33;7.53;;;35.00;41.30;;;;;;5014042;28;20563;-76
2022/05/05 10:11:39;;;;;;;9.00;7.77;;;35.00;41.40;;;;;;5031395;28;20625;-76
2022/05/05 10:14:07;;;;;;;13.60;7.90;;;35.00;41.30;;;;;;5013942;28;20663;-76
2022/05/05 10:16:33;;;;;;;8.90;7.30;;;34.80;40.70;;;;;;5031709;28;20560;-77
2022/05/05 10:18:59;;;;;;;12.47;7.30;;;34.90;40.90;;;;;;4997209;28;20591;-76
2022/05/05 10:22:01;;;;;;;8.40;7.60;;;34.90;40.40;;;;;;5031245;28;20569;-76
2022/05/05 10:24:27;;;;;;;7.90;7.10;;;34.70;39.50;;;;;;5031533;28;20557;-76
2022/05/05 10:26:55;;;;;;;8.70;7.53;;;34.60;39.60;;;;;;5031533;28;20889;-76
2022/05/05 10:29:41;;;;;;;7.80;6.43;;;34.50;40.00;;;;;;5030625;28;20194;-76
2022/05/05 10:32:18;;;;;;;8.87;8.00;;;34.50;39.30;;;;;;5031232;28;20565;-76
2022/05/05 10:34:45;;;;;;;8.73;7.50;;;34.50;39.40;;;;;;5031501;28;21007;-76
2022/05/05 10:37:12;;;;;;;9.27;5.80;;;34.50;39.50;;;;;;4981316;28;20662;-76
2022/05/05 10:39:48;;;;;;;9.67;6.60;;;34.50;39.80;;;;;;5029422;28;20623;-76
2022/05/05 10:42:16;;;;;;;6.90;6.20;;;34.50;39.70;;;;;;5031012;28;20600;-76
2022/05/05 10:45:09;;;;;;;6.10;5.50;;;34.50;39.40;;;;;;5030990;28;20651;-76
2022/05/05 10:47:55;;;;;;;7.20;6.10;;;34.50;39.50;;;;;;5030701;28;20578;-76
2022/05/05 10:50:50;;;;;;;7.13;5.73;;;34.40;38.60;;;;;;5030821;28;20615;-77
2022/05/05 10:53:28;;;;;;;7.63;6.93;;;34.00;38.60;;;;;;5030520;28;20624;-77
2022/05/05 10:55:54;;;;;;;7.27;5.97;;;33.40;37.30;;;;;;5013548;28;21165;-76
2022/05/05 10:58:59;;;;;;;7.47;6.20;;;33.10;38.70;;;;;;5030282;28;20711;-76
2022/05/05 11:01:33;;;;;;;9.67;7.23;;;32.80;38.40;;;;;;5031062;28;21165;-76
2022/05/05 11:04:28;;;;;;;7.53;6.77;;;32.50;38.30;;;;;;4997163;28;20563;-76
2022/05/05 11:07:25;;;;;;;8.97;7.17;;;32.20;37.60;;;;;;5031145;28;20660;-77
2022/05/05 11:09:51;;;;;;;7.80;6.97;;;31.90;38.40;;;;;;5030212;28;20596;-76
2022/05/05 11:12:23;;;;;;;5.80;5.20;;;31.70;38.90;;;;;;5012664;28;20583;-77
2022/05/05 11:23:48;;;;;;;9.70;5.60;;;30.50;38.00;;;;;;5030664;28;20670;-76
2022/05/05 11:26:19;;;;;;;9.07;7.07;;;30.10;38.80;;;;;;5030948;28;20563;-76
2022/05/05 11:28:47;;;;;;;8.30;7.10;;;30.00;39.40;;;;;;5029894;28;20575;-76
2022/05/05 11:31:24;;;;;;;7.60;6.47;;;29.80;39.30;;;;;;5030254;28;20592;-76
2022/05/05 11:33:55;;;;;;;8.50;6.90;;;29.60;39.10;;;;;;4996429;28;21270;-76
2022/05/05 11:36:33;;;;;;;9.23;6.90;;;29.50;39.40;;;;;;5031026;28;21131;-76
2022/05/05 11:38:59;;;;;;;8.40;6.90;;;29.40;40.40;;;;;;5030172;28;20588;-76
2022/05/05 11:41:26;;;;;;;6.33;5.73;;;29.30;39.60;;;;;;5030123;28;20651;-76
2022/05/05 11:46:38;;;;;;;9.53;6.20;;;29.10;39.70;;;;;;5030921;28;20556;-77
2022/05/05 11:49:04;;;;;;;8.00;6.50;;;29.00;40.00;;;;;;5029939;28;20564;-76
2022/05/05 11:51:32;;;;;;;8.40;6.67;;;28.90;39.70;;;;;;5030762;28;20562;-77
2022/05/05 11:54:00;;;;;;;11.90;6.60;;;28.80;39.60;;;;;;5030737;28;20569;-77
2022/05/05 11:56:28;;;;;;;8.10;6.63;;;28.70;40.10;;;;;;5012853;28;20931;-77
2022/05/05 12:01:41;;;;;;;8.00;5.80;;;28.70;40.50;;;;;;5029771;28;20569;-77
2022/05/05 12:04:10;;;;;;;8.87;6.77;;;28.70;40.80;;;;;;4997042;28;20579;-77
2022/05/05 12:06:38;;;;;;;9.60;6.60;;;28.70;40.80;;;;;;5034587;28;20568;-77
2022/05/05 12:09:06;;;;;;;6.13;5.27;;;28.70;41.00;;;;;;5033988;28;20655;-77
2022/05/05 12:11:32;;;;;;;8.67;5.67;;;28.80;41.10;;;;;;5033441;28;20552;-77
2022/05/05 12:14:06;;;;;;;6.67;5.97;;;28.90;41.20;;;;;;5033684;28;20622;-77
2022/05/05 12:16:37;;;;;;;7.00;6.30;;;28.90;40.90;;;;;;5034760;28;20255;-76
2022/05/05 12:19:11;;;;;;;8.30;6.97;;;28.90;40.80;;;;;;5033912;28;20926;-77
2022/05/05 12:21:54;;;;;;;9.30;6.47;;;28.90;40.00;;;;;;5017075;28;20564;-77
2022/05/05 12:24:22;;;;;;;5.87;5.17;;;28.70;40.20;;;;;;5033840;28;20625;-77
2022/05/05 12:26:49;;;;;;;9.03;5.97;;;28.60;40.20;;;;;;4999746;28;20588;-77
2022/05/05 12:29:17;;;;;;;7.00;6.23;;;28.50;40.10;;;;;;5033629;28;20557;-77
2022/05/05 12:31:55;;;;;;;7.00;5.20;;;28.30;40.00;;;;;;5033578;28;20655;-77
2022/05/05 12:34:25;;;;;;;7.57;5.87;;;28.10;40.20;;;;;;5035816;28;20897;-77
2022/05/05 12:37:14;;;;;;;8.53;5.10;;;28.00;40.40;;;;;;5034770;28;20580;-78
2022/05/05 12:39:58;;;;;;;7.67;5.60;;;27.90;40.60;;;;;;5017589;28;21302;-77
2022/05/05 12:42:38;;;;;;;6.80;5.03;;;27.80;40.70;;;;;;5035979;28;20579;-76
2022/05/05 12:45:04;;;;;;;7.13;4.30;;;27.60;40.70;;;;;;5028616;28;20662;-76
2022/05/05 12:47:30;;;;;;;5.17;3.77;;;27.50;40.50;;;;;;5019403;28;20979;-77
2022/05/05 12:49:56;;;;;;;6.13;4.60;;;27.30;40.20;;;;;;5018351;28;20635;-76
2022/05/05 13:00:55;;;;;;;8.03;4.73;;;26.70;40.50;;;;;;5049883;28;20683;-76
2022/05/05 13:03:22;;;;;;;5.73;4.23;;;26.60;40.60;;;;;;5020065;28;20572;-76
2022/05/05 13:05:48;;;;;;;5.07;4.57;;;26.40;40.60;;;;;;5022075;28;20580;-76
2022/05/05 13:08:15;;;;;;;8.10;4.60;;;26.30;40.60;;;;;;5014763;28;20683;-76
2022/05/05 13:10:41;;;;;;;7.73;4.30;;;26.10;40.70;;;;;;5035637;28;20196;-76
2022/05/05 13:13:07;;;;;;;5.13;4.10;;;26.10;40.90;;;;;;5028062;28;20573;-77
2022/05/05 13:15:33;;;;;;;8.27;5.33;;;25.90;41.10;;;;;;5043197;28;20662;-77
2022/05/05 13:17:58;;;;;;;9.60;5.90;;;25.80;41.10;;;;;;5038234;28;20204;-76
2022/05/05 13:20:24;;;;;;;6.37;5.07;;;25.80;41.60;;;;;;5048564;28;20267;-76
2022/05/05 13:22:50;;;;;;;8.20;5.60;;;25.80;41.90;;;;;;5031384;28;20176;-76
2022/05/05 13:25:16;;;;;;;7.37;5.70;;;25.90;42.20;;;;;;5040596;28;20567;-76
2022/05/05 13:27:41;;;;;;;5.50;4.53;;;26.00;42.40;;;;;;5040081;28;20183;-76
2022/05/05 13:30:08;;;;;;;5.80;4.27;;;26.10;42.40;;;;;;5047136;28;20201;-76
2022/05/05 13:32:34;;;;;;;7.17;3.97;;;26.20;42.30;;;;;;5017909;28;20234;-76
2022/05/05 13:35:01;;;;;;;7.27;5.30;;;26.30;42.20;;;;;;5045990;28;20584;-76
2022/05/05 13:37:26;;;;;;;5.27;4.13;;;26.40;42.30;;;;;;5024018;28;20248;-76
2022/05/05 13:39:52;;;;;;;4.43;3.33;;;26.40;42.20;;;;;;5026539;28;20619;-76
2022/05/05 13:42:18;;;;;;;7.47;4.60;;;26.40;42.10;;;;;;5016639;28;20627;-76
2022/05/05 13:44:44;;;;;;;7.73;5.00;;;26.40;41.90;;;;;;5022850;28;20173;-76